Main page
METAR-TAF:

METAR-TAF

Airports :

Bergerac Dordogne Périgord Airport

Bergerac, France

latitude: 44-49N, longitude: 000-31E, elevation: 51 m

Current weather observation

The report was made 36 minutes ago, at 02:00 UTC
Wind 3 kt from the East
Temperature 4°C
Humidity 93%
Pressure 1029 hPa
Visibility 10 km or more
no clouds below 1500 m and no cumulonimbus

METAR: LFBE 030200Z AUTO 09003KT CAVOK 04/03 Q1029

Time: 03:36 (02:36 UTC)

Forecast

The report was made 9 hours and 36 minutes ago, at 17:00 UTC
Forecast valid from 02 at 18 UTC to 03 at 18 UTC
Wind 5 kt from the South/Southeast
Visibility 10 km or more
no clouds below 1500 m and no cumulonimbus

TAF: LFBE 021700Z 0218/0318 16005KT CAVOK

Weather observations and forecasts of more than 4000 airports (METAR and TAF reports).

The available stations are represented by yellow and red dots on the map.

Hover mouse over dot to see the name of the station.

Then click to see weather observations and forecasts.

To change the map : click on the green buttons with a black cross to zoom in, on the green button with a dash to zoom out, or on the green arrows for adjacent maps.


METAR-TAF: